Decoded Metar for DAUH (HASSI-MESSAOUD in ALGERIA) (IATA:HME) | Meteo·Mobile Aviation Weather
aviador You're here:

DAUH Decoded Metar

HASSI-MESSAOUD in ALGERIA
Report Time2018-12-11 01:30:00
UTC Time2018-12-11 02:02:25
Flight Rules vfr VFR
Wind200° at 03 kt
W.Decomp.*RWY 18: 2.8 kt HW 1.0 kt RCW
W.Rank200° ranks 20
Current wind is below 200° avg. (9.9)
Visibility9999 m
Phenomena:N/A
Clouds:N/A
Expected CloudBase > 800 ft AGL from Temp-Dew spread
CeilingNone
Temp07°C (ISA -7)
Dew Point05°C (87% RH)
AAT4.8°C
QNH1024 hPa
Density Alt-636 ft
Elevation466 ft
Report Wrong Elevation
Raw Report
DAUH 110130Z 20003KT CAVOK 07/05 Q1024=

Extra information for DAUH:More info

Metar Taf Metar & Taf Last 4 Metars F.Rules Stats Wind Profile Meteogram Temp Stats Airport Information Weather charts Add Link Nearby VenuesMetar ALERT Operation Metar Decoded Social comments